createdAt,value
2022-08-16T00:00:03.227Z,20.50
2022-08-16T00:02:34.201Z,20.50
2022-08-16T00:05:02.929Z,20.50
2022-08-16T00:07:31.608Z,20.50
2022-08-16T00:10:01.603Z,20.50
2022-08-16T00:12:31.936Z,20.60
2022-08-16T00:15:02.361Z,20.60
2022-08-16T00:17:30.600Z,20.60
2022-08-16T00:20:21.441Z,20.60
2022-08-16T00:22:53.639Z,20.60
2022-08-16T00:26:13.516Z,20.60
2022-08-16T00:28:13.723Z,20.60
2022-08-16T00:30:43.052Z,20.60
2022-08-16T00:33:13.145Z,20.60
2022-08-16T00:35:41.548Z,20.60
2022-08-16T00:38:41.240Z,20.60
2022-08-16T00:41:01.876Z,20.60
2022-08-16T00:43:42.738Z,20.50
2022-08-16T00:46:33.312Z,20.50
2022-08-16T00:49:03.368Z,20.40
2022-08-16T00:51:32.034Z,20.40
2022-08-16T00:54:00.513Z,20.40
2022-08-16T00:56:56.299Z,20.40
2022-08-16T00:59:27.400Z,20.40
2022-08-16T01:01:56.360Z,20.40
2022-08-16T01:04:30.627Z,20.40
2022-08-16T01:07:03.039Z,20.40
2022-08-16T01:09:34.236Z,20.30
2022-08-16T01:12:08.535Z,20.30
2022-08-16T01:14:43.608Z,20.30
2022-08-16T01:17:14.254Z,20.20
2022-08-16T01:19:46.461Z,20.20
2022-08-16T01:22:49.469Z,20.20
2022-08-16T01:25:15.887Z,20.20
2022-08-16T01:27:49.100Z,20.10
2022-08-16T01:30:21.953Z,20.10
2022-08-16T01:33:14.186Z,20.00
2022-08-16T01:35:52.896Z,20.00
2022-08-16T01:38:25.757Z,20.00
2022-08-16T01:41:01.805Z,20.00
2022-08-16T01:43:32.150Z,20.00
2022-08-16T01:46:37.073Z,19.90
2022-08-16T01:48:55.939Z,19.90
2022-08-16T01:51:26.953Z,19.80
2022-08-16T01:53:57.412Z,19.80
2022-08-16T01:56:33.207Z,19.70
2022-08-16T01:59:06.215Z,19.70
2022-08-16T02:01:36.871Z,19.70
2022-08-16T02:04:10.868Z,19.70
2022-08-16T02:06:46.613Z,19.60
2022-08-16T02:09:19.222Z,19.70
2022-08-16T02:11:57.692Z,19.60
2022-08-16T02:14:29.102Z,19.60
2022-08-16T02:17:02.554Z,19.50
2022-08-16T02:19:58.745Z,19.50
2022-08-16T02:22:34.961Z,19.50
2022-08-16T02:25:10.300Z,19.50
2022-08-16T02:27:42.112Z,19.40
2022-08-16T02:30:37.307Z,19.30
2022-08-16T02:33:06.372Z,19.30
2022-08-16T02:35:54.559Z,19.30
2022-08-16T02:38:31.692Z,19.20
2022-08-16T02:41:02.819Z,19.20
2022-08-16T02:43:39.783Z,19.10
2022-08-16T02:46:10.760Z,19.10
2022-08-16T02:48:49.208Z,19.10
2022-08-16T02:51:19.306Z,19.00
2022-08-16T02:53:52.924Z,19.00
2022-08-16T02:56:22.199Z,19.00
2022-08-16T02:58:54.717Z,19.00
2022-08-16T03:01:33.672Z,19.00
2022-08-16T03:04:39.520Z,19.00
2022-08-16T03:07:11.605Z,19.00
2022-08-16T03:09:45.446Z,19.00
2022-08-16T03:12:18.411Z,19.00
2022-08-16T03:14:49.802Z,19.00
2022-08-16T03:17:21.920Z,19.00
2022-08-16T03:20:02.467Z,18.90
2022-08-16T03:22:37.373Z,19.00
2022-08-16T03:25:15.831Z,18.90
2022-08-16T03:27:54.524Z,18.90
2022-08-16T03:30:29.528Z,18.90
2022-08-16T03:33:04.803Z,18.90
2022-08-16T03:35:44.782Z,18.90
2022-08-16T03:38:33.146Z,18.90
2022-08-16T03:41:14.358Z,18.90
2022-08-16T03:43:56.971Z,18.90
2022-08-16T03:46:45.124Z,18.90
2022-08-16T03:49:22.683Z,18.80
2022-08-16T03:51:54.452Z,18.90
2022-08-16T03:54:28.532Z,18.80
2022-08-16T03:56:58.829Z,18.80
2022-08-16T03:59:31.851Z,18.80
2022-08-16T04:02:12.191Z,18.70
2022-08-16T04:04:51.893Z,18.70
2022-08-16T04:07:20.559Z,18.70
2022-08-16T04:09:49.700Z,18.80
2022-08-16T04:12:52.304Z,18.70
2022-08-16T04:15:08.532Z,18.70
2022-08-16T04:17:45.358Z,18.70
2022-08-16T04:20:29.585Z,18.70
2022-08-16T04:23:04.148Z,18.60
2022-08-16T04:25:35.224Z,18.60
2022-08-16T04:28:28.653Z,18.50
2022-08-16T04:30:53.420Z,18.50
2022-08-16T04:33:27.010Z,18.40
2022-08-16T04:35:58.936Z,18.50
2022-08-16T04:38:30.598Z,18.40
2022-08-16T04:40:59.935Z,18.40
2022-08-16T04:43:29.289Z,18.40
2022-08-16T04:46:00.319Z,18.40
2022-08-16T04:48:34.701Z,18.40
2022-08-16T04:51:12.039Z,18.40
2022-08-16T04:53:51.918Z,18.40
2022-08-16T04:56:21.344Z,18.40
2022-08-16T04:58:52.316Z,18.50
2022-08-16T05:01:57.680Z,18.50
2022-08-16T05:04:19.689Z,18.50
2022-08-16T05:06:50.573Z,18.60
2022-08-16T05:09:26.233Z,18.50
2022-08-16T05:11:57.797Z,18.60
2022-08-16T05:14:45.932Z,18.60
2022-08-16T05:17:18.952Z,18.60
2022-08-16T05:19:57.267Z,18.70
2022-08-16T05:22:30.113Z,18.80
2022-08-16T05:25:09.248Z,18.80
2022-08-16T05:27:42.867Z,18.90
2022-08-16T05:30:36.757Z,18.90
2022-08-16T05:33:08.853Z,18.90
2022-08-16T05:35:39.420Z,19.00
2022-08-16T05:38:30.962Z,19.10
2022-08-16T05:41:09.521Z,19.20
2022-08-16T05:43:43.226Z,19.20
2022-08-16T05:46:29.700Z,19.40
2022-08-16T05:49:09.494Z,19.40
2022-08-16T05:51:45.835Z,19.60
2022-08-16T05:54:20.314Z,19.70
2022-08-16T05:56:55.703Z,19.90
2022-08-16T05:59:26.919Z,20.00
2022-08-16T06:01:57.655Z,20.10
2022-08-16T06:04:35.363Z,20.30
2022-08-16T06:07:24.749Z,20.60
2022-08-16T06:10:05.054Z,20.90
2022-08-16T06:12:37.023Z,21.30
2022-08-16T06:15:11.422Z,21.40
2022-08-16T06:17:44.601Z,21.50
2022-08-16T06:20:25.607Z,21.70
2022-08-16T06:23:11.764Z,21.80
2022-08-16T06:26:12.303Z,22.00
2022-08-16T06:28:45.565Z,22.10
2022-08-16T06:31:24.890Z,22.20
2022-08-16T06:33:55.551Z,22.30
2022-08-16T06:36:27.000Z,22.40
2022-08-16T06:39:17.476Z,22.50
2022-08-16T06:41:59.832Z,22.70
2022-08-16T06:44:54.130Z,22.70
2022-08-16T06:47:53.103Z,22.80
2022-08-16T06:50:29.398Z,23.00
2022-08-16T06:53:06.861Z,23.20
2022-08-16T06:55:43.124Z,23.40
2022-08-16T06:58:21.949Z,23.50
2022-08-16T07:00:53.529Z,23.70
2022-08-16T07:03:27.494Z,23.80
2022-08-16T07:05:58.976Z,23.90
2022-08-16T07:08:35.056Z,24.00
2022-08-16T07:11:05.078Z,24.10
2022-08-16T07:14:00.345Z,24.20
2022-08-16T07:16:27.885Z,24.40
2022-08-16T07:19:02.029Z,24.50
2022-08-16T07:21:46.183Z,24.70
2022-08-16T07:24:30.011Z,24.70
2022-08-16T07:27:04.296Z,24.90
2022-08-16T07:29:38.015Z,24.90
2022-08-16T07:32:10.675Z,25.00
2022-08-16T07:34:48.498Z,25.00
2022-08-16T07:37:19.073Z,25.00
2022-08-16T07:40:31.911Z,25.10
2022-08-16T07:43:10.410Z,25.10
2022-08-16T07:45:42.977Z,25.20
2022-08-16T07:48:12.451Z,25.20
2022-08-16T07:50:56.726Z,25.30
2022-08-16T07:53:29.501Z,25.40
2022-08-16T07:56:00.335Z,25.50
2022-08-16T07:58:36.576Z,25.60
2022-08-16T08:01:24.731Z,25.70
2022-08-16T08:04:00.459Z,25.70
2022-08-16T08:06:36.089Z,25.70
2022-08-16T08:09:10.880Z,25.80
2022-08-16T08:11:40.513Z,25.90
2022-08-16T08:14:30.914Z,26.00
2022-08-16T08:17:04.178Z,26.10
2022-08-16T08:19:37.443Z,26.20
2022-08-16T08:22:19.449Z,26.20
2022-08-16T08:24:58.923Z,26.30
2022-08-16T08:27:32.736Z,26.40
2022-08-16T08:30:50.049Z,26.40
2022-08-16T08:33:02.176Z,26.50
2022-08-16T08:35:37.826Z,26.70
2022-08-16T08:38:08.835Z,26.80
2022-08-16T08:40:44.888Z,26.90
2022-08-16T08:43:17.875Z,27.00
2022-08-16T08:45:57.607Z,27.00
2022-08-16T08:48:32.891Z,27.10
2022-08-16T08:51:04.800Z,27.10
2022-08-16T08:53:36.161Z,27.20
2022-08-16T08:56:23.217Z,27.20
2022-08-16T08:59:05.989Z,27.20
2022-08-16T09:01:57.664Z,27.30
2022-08-16T09:04:30.621Z,27.30
2022-08-16T09:07:01.337Z,27.40
2022-08-16T09:09:34.141Z,27.60
2022-08-16T09:12:08.317Z,27.50
2022-08-16T09:15:05.424Z,27.50
2022-08-16T09:17:51.984Z,27.60
2022-08-16T09:20:26.283Z,27.60
2022-08-16T09:22:55.631Z,27.80
2022-08-16T09:25:34.321Z,27.80
2022-08-16T09:28:12.030Z,27.90
2022-08-16T09:31:17.425Z,28.00
2022-08-16T09:33:52.074Z,28.20
2022-08-16T09:36:32.168Z,28.20
2022-08-16T09:39:02.189Z,28.40
2022-08-16T09:41:31.664Z,28.50
2022-08-16T09:44:02.282Z,28.50
2022-08-16T09:46:48.335Z,28.60
2022-08-16T09:49:20.326Z,28.60
2022-08-16T09:51:54.484Z,28.70
2022-08-16T09:54:32.464Z,28.60
2022-08-16T09:57:01.481Z,28.70
2022-08-16T09:59:31.224Z,28.70
2022-08-16T10:02:26.117Z,28.70
2022-08-16T10:04:58.290Z,28.70
2022-08-16T10:07:44.086Z,28.70
2022-08-16T10:10:18.979Z,28.70
2022-08-16T10:13:14.306Z,28.70
2022-08-16T10:15:55.084Z,28.80
2022-08-16T10:18:56.255Z,28.90
2022-08-16T10:21:15.640Z,29.00
2022-08-16T10:23:44.199Z,29.00
2022-08-16T10:27:19.576Z,29.50
2022-08-16T10:29:01.627Z,29.90
2022-08-16T10:31:44.171Z,30.40
2022-08-16T10:34:32.017Z,30.90
2022-08-16T10:37:03.345Z,31.30
2022-08-16T10:39:40.871Z,31.70
2022-08-16T10:42:13.383Z,31.90
2022-08-16T10:44:42.969Z,32.30
2022-08-16T10:47:22.727Z,32.70
2022-08-16T10:49:52.035Z,33.10
2022-08-16T10:52:21.615Z,33.00
2022-08-16T10:54:59.981Z,32.70
2022-08-16T10:57:41.571Z,31.90
2022-08-16T11:00:22.515Z,31.60
2022-08-16T11:02:58.725Z,31.10
2022-08-16T11:08:23.470Z,30.80
2022-08-16T11:11:12.792Z,30.60
2022-08-16T11:13:58.723Z,30.60
2022-08-16T11:19:17.791Z,31.00
2022-08-16T11:24:42.760Z,31.60
2022-08-16T11:27:19.552Z,32.00
2022-08-16T11:29:51.936Z,32.10
2022-08-16T11:32:29.834Z,31.90
2022-08-16T11:35:14.940Z,31.70
2022-08-16T11:40:40.810Z,31.50
2022-08-16T11:43:16.501Z,31.40
2022-08-16T11:45:54.266Z,31.10
2022-08-16T11:48:24.588Z,31.20
2022-08-16T11:50:53.445Z,31.50
2022-08-16T11:53:22.233Z,31.70
2022-08-16T11:55:54.730Z,31.90
2022-08-16T11:58:25.354Z,32.10
2022-08-16T12:00:57.402Z,32.20
2022-08-16T12:03:34.254Z,32.20
2022-08-16T12:06:10.860Z,32.20
2022-08-16T12:08:40.396Z,32.30
2022-08-16T12:11:11.635Z,32.30
2022-08-16T12:13:41.059Z,32.20
2022-08-16T12:16:10.444Z,32.20
2022-08-16T12:18:40.185Z,32.20
2022-08-16T12:21:09.809Z,32.30
2022-08-16T12:23:39.264Z,32.30
2022-08-16T12:26:10.510Z,32.20
2022-08-16T12:28:54.988Z,32.30
2022-08-16T12:31:25.718Z,32.30
2022-08-16T12:33:57.720Z,32.40
2022-08-16T12:36:30.256Z,32.60
2022-08-16T12:38:59.423Z,32.80
2022-08-16T12:41:29.048Z,33.00
2022-08-16T12:44:04.791Z,33.20
2022-08-16T12:46:34.916Z,33.30
2022-08-16T12:49:05.758Z,33.30
2022-08-16T12:51:58.293Z,33.50
2022-08-16T12:54:26.266Z,33.50
2022-08-16T12:56:55.550Z,33.50
2022-08-16T12:59:25.259Z,33.80
2022-08-16T13:02:00.695Z,34.10
2022-08-16T13:04:31.446Z,34.40
2022-08-16T13:09:37.803Z,34.60
2022-08-16T13:12:19.933Z,34.60
2022-08-16T13:14:52.605Z,34.60
2022-08-16T13:17:26.342Z,34.60
2022-08-16T13:20:13.721Z,34.70
2022-08-16T13:22:44.285Z,34.90
2022-08-16T13:25:19.429Z,34.70
2022-08-16T13:28:01.623Z,34.70
2022-08-16T13:30:41.286Z,34.80
2022-08-16T13:33:12.588Z,34.80
2022-08-16T13:35:43.797Z,34.60
2022-08-16T13:38:24.974Z,34.60
2022-08-16T13:40:56.404Z,34.00
2022-08-16T13:43:26.958Z,33.90
2022-08-16T13:45:58.203Z,34.00
2022-08-16T13:48:42.685Z,34.00
2022-08-16T13:51:17.558Z,34.10
2022-08-16T13:53:54.595Z,34.10
2022-08-16T13:56:36.794Z,34.10
2022-08-16T13:59:19.431Z,34.10
2022-08-16T14:01:55.045Z,34.00
2022-08-16T14:04:27.418Z,34.00
2022-08-16T14:06:57.076Z,34.10
2022-08-16T14:09:27.161Z,34.10
2022-08-16T14:11:57.341Z,34.00
2022-08-16T14:14:29.150Z,34.00
2022-08-16T14:17:00.481Z,34.00
2022-08-16T14:19:31.038Z,34.10
2022-08-16T14:22:14.190Z,34.20
2022-08-16T14:24:52.292Z,34.20
2022-08-16T14:27:23.573Z,34.00
2022-08-16T14:29:55.281Z,34.10
2022-08-16T14:32:33.167Z,34.20
2022-08-16T14:35:07.437Z,34.30
2022-08-16T14:37:36.906Z,34.30
2022-08-16T14:40:06.373Z,34.20
2022-08-16T14:42:36.656Z,34.30
2022-08-16T14:45:06.294Z,34.10
2022-08-16T14:47:37.214Z,33.90
2022-08-16T14:50:07.540Z,33.90
2022-08-16T14:52:56.089Z,33.90
2022-08-16T14:55:25.970Z,33.90
2022-08-16T14:57:54.778Z,34.10
2022-08-16T15:00:32.948Z,34.20
2022-08-16T15:03:06.074Z,34.20
2022-08-16T15:05:35.160Z,34.20
2022-08-16T15:08:04.141Z,34.20
2022-08-16T15:10:33.060Z,34.30
2022-08-16T15:13:01.794Z,34.00
2022-08-16T15:15:31.846Z,34.20
2022-08-16T15:18:02.332Z,34.40
2022-08-16T15:20:35.549Z,34.60
2022-08-16T15:23:07.327Z,34.60
2022-08-16T15:25:41.222Z,34.30
2022-08-16T15:28:30.807Z,34.20
2022-08-16T15:31:03.822Z,34.20
2022-08-16T15:33:34.554Z,34.00
2022-08-16T15:36:06.283Z,33.90
2022-08-16T15:38:55.795Z,33.80
2022-08-16T15:41:53.847Z,33.60
2022-08-16T15:44:24.348Z,33.20
2022-08-16T15:46:59.794Z,33.10
2022-08-16T15:49:37.347Z,33.00
2022-08-16T15:52:12.147Z,33.00
2022-08-16T15:54:52.527Z,33.10
2022-08-16T15:57:22.977Z,33.20
2022-08-16T15:59:52.727Z,33.40
2022-08-16T16:02:30.375Z,33.70
2022-08-16T16:05:02.146Z,34.00
2022-08-16T16:07:33.746Z,34.30
2022-08-16T16:10:03.780Z,34.60
2022-08-16T16:12:53.702Z,34.70
2022-08-16T16:15:24.430Z,34.70
2022-08-16T16:17:53.957Z,34.70
2022-08-16T16:20:27.413Z,34.60
2022-08-16T16:22:58.840Z,34.50
2022-08-16T16:25:29.932Z,34.00
2022-08-16T16:27:59.723Z,33.70
2022-08-16T16:30:33.114Z,33.60
2022-08-16T16:33:20.659Z,33.50
2022-08-16T16:35:55.216Z,33.50
2022-08-16T16:38:30.458Z,33.30
2022-08-16T16:40:59.460Z,33.10
2022-08-16T16:43:31.705Z,33.00
2022-08-16T16:46:02.423Z,32.80
2022-08-16T16:48:35.563Z,32.70
2022-08-16T16:51:09.768Z,32.60
2022-08-16T16:53:42.619Z,32.50
2022-08-16T16:56:19.665Z,32.40
2022-08-16T16:59:00.956Z,32.10
2022-08-16T17:01:57.698Z,31.90
2022-08-16T17:04:31.895Z,31.80
2022-08-16T17:07:02.224Z,31.50
2022-08-16T17:09:32.251Z,31.30
2022-08-16T17:12:00.878Z,31.00
2022-08-16T17:14:33.563Z,30.80
2022-08-16T17:17:06.884Z,30.60
2022-08-16T17:19:40.815Z,30.20
2022-08-16T17:22:14.184Z,30.30
2022-08-16T17:24:50.933Z,30.20
2022-08-16T17:27:33.816Z,30.20
2022-08-16T17:30:16.212Z,30.30
2022-08-16T17:32:50.190Z,30.20
2022-08-16T17:35:23.059Z,30.10
2022-08-16T17:37:52.507Z,30.10
2022-08-16T17:40:45.812Z,30.30
2022-08-16T17:43:18.617Z,30.20
2022-08-16T17:45:47.598Z,30.10
2022-08-16T17:48:16.088Z,30.10
2022-08-16T17:50:45.502Z,30.00
2022-08-16T17:53:15.774Z,29.80
2022-08-16T17:55:48.628Z,29.70
2022-08-16T17:58:23.710Z,29.70
2022-08-16T18:00:55.882Z,29.60
2022-08-16T18:04:02.976Z,29.50
2022-08-16T18:06:18.357Z,29.50
2022-08-16T18:08:48.407Z,29.30
2022-08-16T18:11:26.201Z,29.10
2022-08-16T18:13:55.788Z,29.00
2022-08-16T18:16:24.452Z,29.00
2022-08-16T18:18:52.783Z,29.00
2022-08-16T18:21:38.589Z,29.00
2022-08-16T18:24:07.175Z,28.90
2022-08-16T18:26:37.411Z,28.80
2022-08-16T18:29:06.557Z,28.80
2022-08-16T18:31:35.415Z,28.70
2022-08-16T18:34:06.444Z,28.60
2022-08-16T18:36:34.838Z,28.60
2022-08-16T18:39:03.312Z,28.50
2022-08-16T18:41:33.759Z,28.40
2022-08-16T18:44:25.721Z,28.30
2022-08-16T18:46:52.037Z,28.30
2022-08-16T18:49:20.575Z,28.10
2022-08-16T18:51:50.714Z,28.00
2022-08-16T18:54:19.356Z,28.00
2022-08-16T18:56:55.744Z,27.90
2022-08-16T18:59:27.914Z,27.80
2022-08-16T19:02:00.314Z,27.70
2022-08-16T19:04:50.348Z,27.60
2022-08-16T19:07:30.561Z,27.50
2022-08-16T19:10:00.556Z,27.30
2022-08-16T19:12:38.438Z,27.20
2022-08-16T19:15:14.580Z,27.10
2022-08-16T19:17:45.712Z,27.00
2022-08-16T19:20:15.595Z,26.90
2022-08-16T19:23:04.578Z,26.70
2022-08-16T19:25:46.248Z,26.60
2022-08-16T19:28:46.603Z,26.50
2022-08-16T19:31:09.253Z,26.30
2022-08-16T19:33:37.877Z,26.10
2022-08-16T19:36:07.441Z,26.00
2022-08-16T19:38:40.097Z,26.00
2022-08-16T19:41:08.844Z,25.90
2022-08-16T19:43:37.411Z,25.80
2022-08-16T19:46:07.328Z,25.60
2022-08-16T19:48:35.563Z,25.50
2022-08-16T19:51:03.814Z,25.40
2022-08-16T19:53:32.052Z,25.40
2022-08-16T19:56:00.261Z,25.20
2022-08-16T19:58:28.553Z,25.20
2022-08-16T20:00:56.761Z,25.10
2022-08-16T20:03:26.825Z,25.00
2022-08-16T20:05:55.162Z,25.00
2022-08-16T20:08:23.583Z,24.90
2022-08-16T20:10:51.800Z,24.90
2022-08-16T20:13:22.408Z,24.80
2022-08-16T20:15:51.500Z,24.70
2022-08-16T20:18:24.938Z,24.70
2022-08-16T20:20:56.126Z,24.60
2022-08-16T20:23:25.471Z,24.50
2022-08-16T20:25:55.628Z,24.40
2022-08-16T20:28:50.033Z,24.40
2022-08-16T20:31:12.999Z,24.30
2022-08-16T20:33:41.223Z,24.20
2022-08-16T20:36:16.091Z,24.10
2022-08-16T20:38:47.176Z,24.00
2022-08-16T20:41:16.778Z,24.00
2022-08-16T20:43:45.578Z,24.00
2022-08-16T20:46:14.773Z,23.80
2022-08-16T20:48:45.149Z,23.70
2022-08-16T20:51:14.808Z,23.60
2022-08-16T20:53:44.796Z,23.60
2022-08-16T20:56:13.456Z,23.60
2022-08-16T20:58:41.792Z,23.50
2022-08-16T21:01:10.124Z,23.40
2022-08-16T21:03:39.263Z,23.40
2022-08-16T21:06:07.989Z,23.30
2022-08-16T21:08:52.220Z,23.20
2022-08-16T21:11:23.594Z,23.10
2022-08-16T21:13:52.870Z,23.10
2022-08-16T21:16:28.837Z,23.00
2022-08-16T21:18:57.786Z,23.00
2022-08-16T21:21:31.947Z,22.90
2022-08-16T21:24:04.234Z,22.90
2022-08-16T21:26:32.539Z,22.90
2022-08-16T21:29:07.689Z,22.80
2022-08-16T21:31:41.045Z,22.80
2022-08-16T21:34:09.942Z,22.70
2022-08-16T21:36:39.223Z,22.70
2022-08-16T21:39:08.804Z,22.70
2022-08-16T21:41:38.384Z,22.60
2022-08-16T21:44:07.108Z,22.60
2022-08-16T21:46:35.440Z,22.70
2022-08-16T21:49:04.693Z,22.70
2022-08-16T21:51:33.192Z,22.70
2022-08-16T21:54:01.463Z,22.70
2022-08-16T21:56:31.339Z,22.80
2022-08-16T21:58:59.596Z,22.80
2022-08-16T22:01:27.935Z,22.80
2022-08-16T22:04:01.584Z,22.80
2022-08-16T22:06:44.960Z,22.80
2022-08-16T22:09:16.214Z,22.80
2022-08-16T22:11:45.839Z,22.70
2022-08-16T22:14:16.093Z,22.70
2022-08-16T22:16:44.430Z,22.70
2022-08-16T22:19:13.584Z,22.70
2022-08-16T22:21:41.783Z,22.70
2022-08-16T22:24:10.043Z,22.60
2022-08-16T22:26:43.266Z,22.70
2022-08-16T22:29:15.448Z,22.60
2022-08-16T22:31:44.797Z,22.60
2022-08-16T22:34:13.716Z,22.60
2022-08-16T22:36:42.461Z,22.60
2022-08-16T22:39:12.715Z,22.60
2022-08-16T22:41:43.306Z,22.60
2022-08-16T22:44:13.541Z,22.50
2022-08-16T22:46:42.110Z,22.60
2022-08-16T22:49:10.965Z,22.60
2022-08-16T22:51:40.317Z,22.50
2022-08-16T22:54:45.951Z,22.60
2022-08-16T22:56:58.220Z,22.60
2022-08-16T22:59:30.240Z,22.60
2022-08-16T23:01:58.760Z,22.60
2022-08-16T23:04:29.427Z,22.70
2022-08-16T23:06:57.669Z,22.60
2022-08-16T23:09:26.087Z,22.50
2022-08-16T23:11:54.448Z,22.50
2022-08-16T23:14:22.675Z,22.50
2022-08-16T23:16:52.340Z,22.40
2022-08-16T23:19:20.540Z,22.40
2022-08-16T23:21:49.378Z,22.40
2022-08-16T23:24:20.520Z,22.40
2022-08-16T23:26:49.739Z,22.40
2022-08-16T23:29:24.476Z,22.40
2022-08-16T23:31:59.037Z,22.40
2022-08-16T23:34:29.039Z,22.40
2022-08-16T23:36:57.695Z,22.40
2022-08-16T23:39:27.027Z,22.50
2022-08-16T23:41:55.686Z,22.40
2022-08-16T23:44:55.698Z,22.50
2022-08-16T23:47:13.654Z,22.40
2022-08-16T23:49:57.317Z,22.40
2022-08-16T23:52:53.877Z,22.30
2022-08-16T23:55:17.292Z,22.40
2022-08-16T23:57:47.367Z,22.40
